createdAt,value
2023-03-29T00:00:08.133Z,66.53
2023-03-29T00:02:35.808Z,69.47
2023-03-29T00:05:05.239Z,69.59
2023-03-29T00:07:33.891Z,69.27
2023-03-29T00:10:01.970Z,70.51
2023-03-29T00:12:29.852Z,70.37
2023-03-29T00:14:57.767Z,71.16
2023-03-29T00:17:25.380Z,69.15
2023-03-29T00:19:53.082Z,69.95
2023-03-29T00:22:22.290Z,68.90
2023-03-29T00:24:54.282Z,69.58
2023-03-29T00:27:22.164Z,68.53
2023-03-29T00:29:49.643Z,68.11
2023-03-29T00:32:17.222Z,65.62
2023-03-29T00:34:46.062Z,65.18
2023-03-29T00:37:14.742Z,64.16
2023-03-29T00:39:44.582Z,62.43
2023-03-29T00:42:13.733Z,61.07
2023-03-29T00:45:04.040Z,60.50
2023-03-29T00:47:37.489Z,62.15
2023-03-29T00:50:12.336Z,60.74
2023-03-29T00:52:42.268Z,61.25
2023-03-29T00:55:15.719Z,62.04
2023-03-29T00:57:46.403Z,61.28
2023-03-29T01:00:20.866Z,62.07
2023-03-29T01:02:54.104Z,62.40
2023-03-29T01:05:27.125Z,60.89
2023-03-29T01:07:59.705Z,59.90
2023-03-29T01:10:33.963Z,59.36
2023-03-29T01:13:09.405Z,58.84
2023-03-29T01:15:39.571Z,60.33
2023-03-29T01:18:07.373Z,61.66
2023-03-29T01:20:49.015Z,64.01
2023-03-29T01:23:46.921Z,63.67
2023-03-29T01:26:24.901Z,65.00
2023-03-29T01:28:59.472Z,64.21
2023-03-29T01:31:30.993Z,62.51
2023-03-29T01:34:04.305Z,62.70
2023-03-29T01:36:37.928Z,62.80
2023-03-29T01:39:07.419Z,65.02
2023-03-29T01:41:42.498Z,68.21
2023-03-29T01:44:16.475Z,69.32
2023-03-29T01:46:47.868Z,70.03
2023-03-29T01:49:22.813Z,70.05
2023-03-29T01:51:54.863Z,71.19
2023-03-29T01:54:28.056Z,72.59
2023-03-29T01:56:57.438Z,72.61
2023-03-29T01:59:29.352Z,73.31
2023-03-29T02:02:00.486Z,73.87
2023-03-29T02:04:31.619Z,73.99
2023-03-29T02:07:00.806Z,73.76
2023-03-29T02:09:30.187Z,74.47
2023-03-29T02:12:00.340Z,77.38
2023-03-29T02:14:30.372Z,80.29
2023-03-29T02:16:57.910Z,81.36
2023-03-29T02:19:27.907Z,82.55
2023-03-29T02:22:01.862Z,85.43
2023-03-29T02:24:32.853Z,87.01
2023-03-29T02:27:01.411Z,87.60
2023-03-29T02:29:30.586Z,88.25
2023-03-29T02:32:05.009Z,92.04
2023-03-29T02:34:37.511Z,94.30
2023-03-29T02:37:10.256Z,98.02
2023-03-29T02:39:39.484Z,100.00
2023-03-29T02:42:07.649Z,100.00
2023-03-29T02:44:42.534Z,100.00
2023-03-29T02:47:17.046Z,100.00
2023-03-29T02:49:45.008Z,100.00
2023-03-29T02:52:16.904Z,100.00
2023-03-29T02:54:46.553Z,100.00
2023-03-29T02:57:14.060Z,100.00
2023-03-29T02:59:44.079Z,100.00
2023-03-29T03:02:13.540Z,100.00
2023-03-29T03:04:41.370Z,100.00
2023-03-29T03:07:09.306Z,100.00
2023-03-29T03:09:36.907Z,100.00
2023-03-29T03:12:04.531Z,100.00
2023-03-29T03:14:32.000Z,100.00
2023-03-29T03:17:03.086Z,100.00
2023-03-29T03:19:32.260Z,100.00
2023-03-29T03:21:59.764Z,100.00
2023-03-29T03:24:27.978Z,100.00
2023-03-29T03:26:55.470Z,100.00
2023-03-29T03:29:23.220Z,100.00
2023-03-29T03:31:53.833Z,100.00
2023-03-29T03:34:23.808Z,100.00
2023-03-29T03:36:51.340Z,100.00
2023-03-29T03:39:18.862Z,100.00
2023-03-29T03:41:47.369Z,100.00
2023-03-29T03:44:14.862Z,100.00
2023-03-29T03:46:42.328Z,100.00
2023-03-29T03:49:09.843Z,100.00
2023-03-29T03:51:38.684Z,100.00
2023-03-29T03:54:06.753Z,100.00
2023-03-29T03:56:34.242Z,100.00
2023-03-29T03:59:02.063Z,100.00
2023-03-29T04:01:29.516Z,100.00
2023-03-29T04:03:57.038Z,100.00
2023-03-29T04:06:25.357Z,100.00
2023-03-29T04:08:54.223Z,100.00
2023-03-29T04:11:21.761Z,100.00
2023-03-29T04:13:49.767Z,100.00
2023-03-29T04:16:17.327Z,100.00
2023-03-29T04:18:44.922Z,100.00
2023-03-29T04:21:12.595Z,100.00
2023-03-29T04:23:40.138Z,100.00
2023-03-29T04:26:09.031Z,100.00
2023-03-29T04:28:36.552Z,100.00
2023-03-29T04:31:04.382Z,100.00
2023-03-29T04:33:32.234Z,100.00
2023-03-29T04:36:00.390Z,100.00
2023-03-29T04:38:27.983Z,100.00
2023-03-29T04:40:55.852Z,100.00
2023-03-29T04:43:24.852Z,100.00
2023-03-29T04:45:52.315Z,100.00
2023-03-29T04:48:19.897Z,100.00
2023-03-29T04:50:47.645Z,100.00
2023-03-29T04:53:15.242Z,100.00
2023-03-29T04:55:42.729Z,100.00
2023-03-29T04:58:10.203Z,100.00
2023-03-29T05:00:39.105Z,100.00
2023-03-29T05:03:07.431Z,100.00
2023-03-29T05:05:34.964Z,100.00
2023-03-29T05:08:03.225Z,100.00
2023-03-29T05:10:30.885Z,100.00
2023-03-29T05:12:58.336Z,100.00
2023-03-29T05:15:26.107Z,100.00
2023-03-29T05:17:54.924Z,100.00
2023-03-29T05:20:22.754Z,100.00
2023-03-29T05:22:50.210Z,100.00
2023-03-29T05:25:18.715Z,100.00
2023-03-29T05:27:46.636Z,100.00
2023-03-29T05:30:15.653Z,100.00
2023-03-29T05:32:43.269Z,100.00
2023-03-29T05:35:12.385Z,100.00
2023-03-29T05:37:39.974Z,100.00
2023-03-29T05:40:10.295Z,100.00
2023-03-29T05:42:38.575Z,100.00
2023-03-29T05:45:07.398Z,100.00
2023-03-29T05:47:34.868Z,100.00
2023-03-29T05:50:02.338Z,100.00
2023-03-29T05:52:31.513Z,100.00
2023-03-29T05:54:58.977Z,100.00
2023-03-29T05:57:27.819Z,100.00
2023-03-29T05:59:56.412Z,100.00
2023-03-29T06:02:25.583Z,100.00
2023-03-29T06:04:53.894Z,100.00
2023-03-29T06:07:23.318Z,100.00
2023-03-29T06:09:52.161Z,100.00
2023-03-29T06:12:21.782Z,100.00
2023-03-29T06:14:49.276Z,100.00
2023-03-29T06:17:17.417Z,100.00
2023-03-29T06:19:45.243Z,100.00
2023-03-29T06:22:14.827Z,100.00
2023-03-29T06:24:42.449Z,100.00
2023-03-29T06:27:11.259Z,100.00
2023-03-29T06:29:38.753Z,100.00
2023-03-29T06:32:06.637Z,100.00
2023-03-29T06:34:36.061Z,100.00
2023-03-29T06:37:05.820Z,100.00
2023-03-29T06:39:33.577Z,100.00
2023-03-29T06:42:07.347Z,100.00
2023-03-29T06:44:42.093Z,100.00
2023-03-29T06:47:09.574Z,100.00
2023-03-29T06:49:37.095Z,100.00
2023-03-29T06:52:04.892Z,100.00
2023-03-29T06:54:33.477Z,100.00
2023-03-29T06:57:01.340Z,100.00
2023-03-29T06:59:28.868Z,100.00
2023-03-29T07:01:58.430Z,100.00
2023-03-29T07:04:26.083Z,100.00
2023-03-29T07:07:01.410Z,100.00
2023-03-29T07:09:30.762Z,100.00
2023-03-29T07:11:58.747Z,100.00
2023-03-29T07:14:28.807Z,100.00
2023-03-29T07:16:59.292Z,100.00
2023-03-29T07:19:28.664Z,100.00
2023-03-29T07:21:57.016Z,100.00
2023-03-29T07:24:24.476Z,100.00
2023-03-29T07:27:03.321Z,100.00
2023-03-29T07:29:32.078Z,100.00
2023-03-29T07:32:00.870Z,100.00
2023-03-29T07:34:30.012Z,100.00
2023-03-29T07:36:57.692Z,100.00
2023-03-29T07:39:26.109Z,100.00
2023-03-29T07:41:53.587Z,100.00
2023-03-29T07:44:21.543Z,100.00
2023-03-29T07:46:49.473Z,100.00
2023-03-29T07:49:19.809Z,100.00
2023-03-29T07:51:49.206Z,100.00
2023-03-29T07:54:16.848Z,100.00
2023-03-29T07:56:44.463Z,100.00
2023-03-29T07:59:11.958Z,100.00
2023-03-29T08:01:40.823Z,100.00
2023-03-29T08:04:09.585Z,100.00
2023-03-29T08:06:38.586Z,100.00
2023-03-29T08:09:06.197Z,100.00
2023-03-29T08:11:33.686Z,100.00
2023-03-29T08:14:01.152Z,100.00
2023-03-29T08:16:28.682Z,100.00
2023-03-29T08:18:56.196Z,100.00
2023-03-29T08:21:23.691Z,100.00
2023-03-29T08:23:52.545Z,100.00
2023-03-29T08:26:20.156Z,100.00
2023-03-29T08:28:47.656Z,100.00
2023-03-29T08:31:16.581Z,100.00
2023-03-29T08:33:44.392Z,100.00
2023-03-29T08:36:12.382Z,100.00
2023-03-29T08:38:39.886Z,100.00
2023-03-29T08:41:27.152Z,100.00
2023-03-29T08:44:07.910Z,100.00
2023-03-29T08:46:45.087Z,100.00
2023-03-29T08:49:13.320Z,100.00
2023-03-29T08:51:45.316Z,100.00
2023-03-29T08:54:18.097Z,100.00
2023-03-29T08:56:47.841Z,100.00
2023-03-29T08:59:20.888Z,100.00
2023-03-29T09:01:51.027Z,99.85
2023-03-29T09:04:22.754Z,92.17
2023-03-29T09:06:50.678Z,88.75
2023-03-29T09:09:20.710Z,87.87
2023-03-29T09:12:02.681Z,85.01
2023-03-29T09:14:41.875Z,84.12
2023-03-29T09:17:21.449Z,85.63
2023-03-29T09:19:55.963Z,86.81
2023-03-29T09:22:30.322Z,88.39
2023-03-29T09:25:10.014Z,85.71
2023-03-29T09:27:48.920Z,82.34
2023-03-29T09:30:25.859Z,81.77
2023-03-29T09:32:54.805Z,77.29
2023-03-29T09:35:26.096Z,78.75
2023-03-29T09:37:55.189Z,77.99
2023-03-29T09:40:27.648Z,77.92
2023-03-29T09:42:57.973Z,82.59
2023-03-29T09:45:25.795Z,82.06
2023-03-29T09:47:57.674Z,79.92
2023-03-29T09:50:31.962Z,81.60
2023-03-29T09:52:59.806Z,79.92
2023-03-29T09:55:30.211Z,76.68
2023-03-29T09:58:02.627Z,77.38
2023-03-29T10:00:30.171Z,80.10
2023-03-29T10:03:00.024Z,76.95
2023-03-29T10:05:37.692Z,76.89
2023-03-29T10:08:19.820Z,75.60
2023-03-29T10:10:48.392Z,78.83
2023-03-29T10:13:23.066Z,81.62
2023-03-29T10:16:09.876Z,82.88
2023-03-29T10:18:42.556Z,84.59
2023-03-29T10:21:14.388Z,84.56
2023-03-29T10:23:42.581Z,85.06
2023-03-29T10:26:15.662Z,83.78
2023-03-29T10:28:44.705Z,83.82
2023-03-29T10:31:19.134Z,80.81
2023-03-29T10:33:53.148Z,80.91
2023-03-29T10:36:20.954Z,74.98
2023-03-29T10:38:49.046Z,73.98
2023-03-29T10:41:18.468Z,69.64
2023-03-29T10:43:50.812Z,69.22
2023-03-29T10:46:23.453Z,71.63
2023-03-29T10:48:52.836Z,71.41
2023-03-29T10:51:20.581Z,67.52
2023-03-29T10:53:48.204Z,64.37
2023-03-29T10:56:34.983Z,60.80
2023-03-29T10:59:17.838Z,59.81
2023-03-29T11:01:58.807Z,61.74
2023-03-29T11:04:37.259Z,60.99
2023-03-29T11:07:27.140Z,61.52
2023-03-29T11:10:11.714Z,63.97
2023-03-29T11:12:45.258Z,60.98
2023-03-29T11:15:30.118Z,64.55
2023-03-29T11:18:18.667Z,65.41
2023-03-29T11:20:55.178Z,64.16
2023-03-29T11:23:37.490Z,62.68
2023-03-29T11:26:13.938Z,60.64
2023-03-29T11:28:49.709Z,60.08
2023-03-29T11:31:39.090Z,60.92
2023-03-29T11:34:27.462Z,60.50
2023-03-29T11:37:02.553Z,61.36
2023-03-29T11:39:41.619Z,59.47
2023-03-29T11:42:16.574Z,60.24
2023-03-29T11:44:47.168Z,60.70
2023-03-29T11:47:19.612Z,61.33
2023-03-29T11:49:51.750Z,60.42
2023-03-29T11:52:24.483Z,60.08
2023-03-29T11:54:58.322Z,61.31
2023-03-29T11:57:29.943Z,62.86
2023-03-29T12:00:05.129Z,63.06
2023-03-29T12:02:39.366Z,61.60
2023-03-29T12:05:14.409Z,64.04
2023-03-29T12:07:46.743Z,63.62
2023-03-29T12:10:20.350Z,64.38
2023-03-29T12:12:53.857Z,69.73
2023-03-29T12:15:24.850Z,70.10
2023-03-29T12:18:03.532Z,72.87
2023-03-29T12:20:34.601Z,70.51
2023-03-29T12:23:02.676Z,75.54
2023-03-29T12:25:35.509Z,75.13
2023-03-29T12:28:17.169Z,76.81
2023-03-29T12:30:55.333Z,78.97
2023-03-29T12:33:41.789Z,74.87
2023-03-29T12:36:20.328Z,75.60
2023-03-29T12:38:52.338Z,71.34
2023-03-29T12:41:21.893Z,71.14
2023-03-29T12:43:50.374Z,71.83
2023-03-29T12:46:20.209Z,77.15
2023-03-29T12:48:52.067Z,78.83
2023-03-29T12:51:22.787Z,75.95
2023-03-29T12:53:53.293Z,72.03
2023-03-29T12:56:23.674Z,75.27
2023-03-29T12:58:56.365Z,77.33
2023-03-29T13:01:28.264Z,72.15
2023-03-29T13:04:16.808Z,75.00
2023-03-29T13:07:05.968Z,70.81
2023-03-29T13:09:36.707Z,69.08
2023-03-29T13:12:14.449Z,68.82
2023-03-29T13:14:44.982Z,69.65
2023-03-29T13:17:25.520Z,68.60
2023-03-29T13:20:09.233Z,67.94
2023-03-29T13:22:48.266Z,61.25
2023-03-29T13:25:29.742Z,61.69
2023-03-29T13:28:04.422Z,59.34
2023-03-29T13:30:45.392Z,60.21
2023-03-29T13:33:31.451Z,59.78
2023-03-29T13:36:07.475Z,61.32
2023-03-29T13:38:46.413Z,62.14
2023-03-29T13:41:28.674Z,64.03
2023-03-29T13:43:57.558Z,62.48
2023-03-29T13:46:36.332Z,62.58
2023-03-29T13:49:16.293Z,65.85
2023-03-29T13:52:05.458Z,63.73
2023-03-29T13:54:37.040Z,63.96
2023-03-29T13:57:09.802Z,61.81
2023-03-29T13:59:44.046Z,53.58
2023-03-29T14:02:20.982Z,51.49
2023-03-29T14:04:52.081Z,53.45
2023-03-29T14:07:26.118Z,52.10
2023-03-29T14:09:56.097Z,53.35
2023-03-29T14:12:23.679Z,51.61
2023-03-29T14:15:03.543Z,53.65
2023-03-29T14:17:31.645Z,57.21
2023-03-29T14:20:01.480Z,57.99
2023-03-29T14:22:34.547Z,58.27
2023-03-29T14:25:06.185Z,58.93
2023-03-29T14:27:37.038Z,58.49
2023-03-29T14:30:20.074Z,60.63
2023-03-29T14:32:49.777Z,58.15
2023-03-29T14:35:17.498Z,56.76
2023-03-29T14:37:48.901Z,55.89
2023-03-29T14:40:19.813Z,59.64
2023-03-29T14:42:49.021Z,62.71
2023-03-29T14:45:19.454Z,63.92
2023-03-29T14:47:47.970Z,59.69
2023-03-29T14:50:22.358Z,59.67
2023-03-29T14:52:52.610Z,60.55
2023-03-29T14:55:23.675Z,60.77
2023-03-29T14:57:52.683Z,57.24
2023-03-29T15:00:26.819Z,57.67
2023-03-29T15:02:57.711Z,57.37
2023-03-29T15:05:32.909Z,55.26
2023-03-29T15:08:03.672Z,53.41
2023-03-29T15:10:34.246Z,54.91
2023-03-29T15:13:03.455Z,60.78
2023-03-29T15:15:34.543Z,64.45
2023-03-29T15:18:03.546Z,69.93
2023-03-29T15:20:34.728Z,73.40
2023-03-29T15:23:05.372Z,75.57
2023-03-29T15:25:37.207Z,78.02
2023-03-29T15:28:05.321Z,82.02
2023-03-29T15:30:35.363Z,84.46
2023-03-29T15:33:16.325Z,84.61
2023-03-29T15:35:50.413Z,83.79
2023-03-29T15:38:23.367Z,84.72
2023-03-29T15:40:55.439Z,84.43
2023-03-29T15:43:23.552Z,84.04
2023-03-29T15:45:51.132Z,82.38
2023-03-29T15:48:21.456Z,81.80
2023-03-29T15:50:49.027Z,81.47
2023-03-29T15:53:18.474Z,81.50
2023-03-29T15:55:50.913Z,78.97
2023-03-29T15:58:21.370Z,79.33
2023-03-29T16:00:54.731Z,80.77
2023-03-29T16:03:24.471Z,81.85
2023-03-29T16:05:54.121Z,83.29
2023-03-29T16:08:21.614Z,84.80
2023-03-29T16:10:50.426Z,82.96
2023-03-29T16:13:17.886Z,82.57
2023-03-29T16:15:45.539Z,84.18
2023-03-29T16:18:13.301Z,85.19
2023-03-29T16:20:41.500Z,85.11
2023-03-29T16:23:09.706Z,84.19
2023-03-29T16:25:39.834Z,84.26
2023-03-29T16:28:09.998Z,87.58
2023-03-29T16:30:38.469Z,86.45
2023-03-29T16:33:08.465Z,87.15
2023-03-29T16:35:38.469Z,87.88
2023-03-29T16:38:06.351Z,88.75
2023-03-29T16:40:34.276Z,88.52
2023-03-29T16:43:02.657Z,88.97
2023-03-29T16:45:31.741Z,89.46
2023-03-29T16:47:59.357Z,91.24
2023-03-29T16:50:27.029Z,93.73
2023-03-29T16:52:54.563Z,94.21
2023-03-29T16:55:22.046Z,94.47
2023-03-29T16:57:50.869Z,96.58
2023-03-29T17:00:20.190Z,96.43
2023-03-29T17:02:50.498Z,96.80
2023-03-29T17:05:18.877Z,99.98
2023-03-29T17:07:46.840Z,100.00
2023-03-29T17:10:15.440Z,100.00
2023-03-29T17:12:42.928Z,100.00
2023-03-29T17:15:11.281Z,100.00
2023-03-29T17:17:38.894Z,96.27
2023-03-29T17:20:11.888Z,93.47
2023-03-29T17:22:39.520Z,92.66
2023-03-29T17:25:08.492Z,96.52
2023-03-29T17:27:37.297Z,97.87
2023-03-29T17:30:05.550Z,98.10
2023-03-29T17:32:33.325Z,99.03
2023-03-29T17:35:00.862Z,99.66
2023-03-29T17:37:30.129Z,96.28
2023-03-29T17:39:57.606Z,95.70
2023-03-29T17:42:25.261Z,99.89
2023-03-29T17:44:52.743Z,100.00
2023-03-29T17:47:20.592Z,100.00
2023-03-29T17:49:48.078Z,100.00
2023-03-29T17:52:15.550Z,100.00
2023-03-29T17:54:44.422Z,100.00
2023-03-29T17:57:12.059Z,100.00
2023-03-29T17:59:39.682Z,100.00
2023-03-29T18:02:07.700Z,100.00
2023-03-29T18:04:35.555Z,100.00
2023-03-29T18:07:03.028Z,100.00
2023-03-29T18:09:31.136Z,100.00
2023-03-29T18:12:00.031Z,100.00
2023-03-29T18:14:27.512Z,100.00
2023-03-29T18:16:55.743Z,100.00
2023-03-29T18:19:23.455Z,100.00
2023-03-29T18:21:51.025Z,100.00
2023-03-29T18:24:18.553Z,100.00
2023-03-29T18:26:46.043Z,100.00
2023-03-29T18:29:15.434Z,100.00
2023-03-29T18:31:43.519Z,100.00
2023-03-29T18:34:11.112Z,100.00
2023-03-29T18:36:38.708Z,100.00
2023-03-29T18:39:06.315Z,100.00
2023-03-29T18:41:35.536Z,100.00
2023-03-29T18:44:03.024Z,100.00
2023-03-29T18:46:33.110Z,100.00
2023-03-29T18:49:02.041Z,100.00
2023-03-29T18:51:29.642Z,100.00
2023-03-29T18:53:57.345Z,100.00
2023-03-29T18:56:24.822Z,100.00
2023-03-29T18:58:52.374Z,100.00
2023-03-29T19:01:19.906Z,100.00
2023-03-29T19:03:49.083Z,100.00
2023-03-29T19:06:16.810Z,100.00
2023-03-29T19:08:44.329Z,100.00
2023-03-29T19:11:14.178Z,100.00
2023-03-29T19:13:42.238Z,100.00
2023-03-29T19:16:10.266Z,100.00
2023-03-29T19:18:37.796Z,100.00
2023-03-29T19:21:06.903Z,100.00
2023-03-29T19:23:34.453Z,100.00
2023-03-29T19:26:03.689Z,100.00
2023-03-29T19:28:32.087Z,100.00
2023-03-29T19:31:01.515Z,100.00
2023-03-29T19:33:29.317Z,100.00
2023-03-29T19:35:57.173Z,100.00
2023-03-29T19:38:26.264Z,100.00
2023-03-29T19:40:53.775Z,100.00
2023-03-29T19:43:21.433Z,100.00
2023-03-29T19:45:50.727Z,100.00
2023-03-29T19:48:23.420Z,100.00
2023-03-29T19:50:51.396Z,100.00
2023-03-29T19:53:19.008Z,100.00
2023-03-29T19:55:48.646Z,100.00
2023-03-29T19:58:16.128Z,100.00
2023-03-29T20:00:43.603Z,100.00
2023-03-29T20:03:11.244Z,100.00
2023-03-29T20:05:39.708Z,100.00
2023-03-29T20:08:07.485Z,100.00
2023-03-29T20:10:36.796Z,100.00
2023-03-29T20:13:06.483Z,100.00
2023-03-29T20:15:36.011Z,100.00
2023-03-29T20:18:03.573Z,100.00
2023-03-29T20:20:31.674Z,100.00
2023-03-29T20:23:04.516Z,100.00
2023-03-29T20:25:33.040Z,100.00
2023-03-29T20:28:00.598Z,100.00
2023-03-29T20:30:29.675Z,100.00
2023-03-29T20:32:57.453Z,100.00
2023-03-29T20:35:25.545Z,100.00
2023-03-29T20:37:53.018Z,100.00
2023-03-29T20:40:20.751Z,100.00
2023-03-29T20:42:48.865Z,100.00
2023-03-29T20:45:19.259Z,100.00
2023-03-29T20:47:55.873Z,100.00
2023-03-29T20:50:30.074Z,100.00
2023-03-29T20:53:02.043Z,100.00
2023-03-29T20:55:30.358Z,100.00
2023-03-29T20:58:00.662Z,100.00
2023-03-29T21:00:31.444Z,100.00
2023-03-29T21:03:00.526Z,100.00
2023-03-29T21:05:29.589Z,100.00
2023-03-29T21:07:57.330Z,100.00
2023-03-29T21:10:26.318Z,100.00
2023-03-29T21:12:55.066Z,100.00
2023-03-29T21:15:22.584Z,100.00
2023-03-29T21:17:50.129Z,100.00
2023-03-29T21:20:19.816Z,100.00
2023-03-29T21:22:47.323Z,100.00
2023-03-29T21:25:15.787Z,100.00
2023-03-29T21:27:43.728Z,100.00
2023-03-29T21:30:11.852Z,100.00
2023-03-29T21:32:39.420Z,100.00
2023-03-29T21:35:07.970Z,100.00
2023-03-29T21:37:36.805Z,100.00
2023-03-29T21:40:06.440Z,100.00
2023-03-29T21:42:34.900Z,100.00
2023-03-29T21:45:02.615Z,100.00
2023-03-29T21:47:30.912Z,100.00
2023-03-29T21:49:58.431Z,100.00
2023-03-29T21:52:26.046Z,100.00
2023-03-29T21:54:54.890Z,100.00
2023-03-29T21:57:22.400Z,100.00
2023-03-29T21:59:49.994Z,100.00
2023-03-29T22:02:17.490Z,100.00
2023-03-29T22:04:45.163Z,100.00
2023-03-29T22:07:12.636Z,100.00
2023-03-29T22:09:42.204Z,100.00
2023-03-29T22:12:11.988Z,100.00
2023-03-29T22:14:39.508Z,100.00
2023-03-29T22:17:07.063Z,100.00
2023-03-29T22:19:38.755Z,100.00
2023-03-29T22:22:07.238Z,100.00
2023-03-29T22:24:34.752Z,100.00
2023-03-29T22:27:02.548Z,100.00
2023-03-29T22:29:31.402Z,100.00
2023-03-29T22:31:58.913Z,100.00
2023-03-29T22:34:26.483Z,100.00
2023-03-29T22:36:54.002Z,100.00
2023-03-29T22:39:21.476Z,100.00
2023-03-29T22:41:48.939Z,100.00
2023-03-29T22:44:16.416Z,100.00
2023-03-29T22:46:45.477Z,100.00
2023-03-29T22:49:13.160Z,100.00
2023-03-29T22:51:40.646Z,100.00
2023-03-29T22:54:08.688Z,100.00
2023-03-29T22:56:36.244Z,100.00
2023-03-29T22:59:03.748Z,100.00
2023-03-29T23:01:31.294Z,100.00
2023-03-29T23:04:00.227Z,100.00
2023-03-29T23:06:27.806Z,100.00
2023-03-29T23:08:55.390Z,100.00
2023-03-29T23:11:22.948Z,100.00
2023-03-29T23:13:52.444Z,100.00
2023-03-29T23:16:20.708Z,100.00
2023-03-29T23:18:48.433Z,100.00
2023-03-29T23:21:17.557Z,100.00
2023-03-29T23:23:45.045Z,100.00
2023-03-29T23:26:12.605Z,100.00
2023-03-29T23:28:41.029Z,100.00
2023-03-29T23:31:10.687Z,100.00
2023-03-29T23:33:40.330Z,100.00
2023-03-29T23:36:10.732Z,100.00
2023-03-29T23:38:40.667Z,100.00
2023-03-29T23:41:10.799Z,100.00
2023-03-29T23:43:40.286Z,100.00
2023-03-29T23:46:09.629Z,100.00
2023-03-29T23:48:37.949Z,100.00
2023-03-29T23:51:07.737Z,100.00
2023-03-29T23:53:35.301Z,100.00
2023-03-29T23:56:06.146Z,100.00
2023-03-29T23:58:36.765Z,100.00
